Terminal Aerodrome Forecast
Issued by NWS

Home | Current Version | Previous Version | Text Only | Print | Product List | Glossary On
Versions: 1 2 3 4 5 6 7 8 9 10 11 12 13 14 15 16 17 18 19 20 21 22 23 24 25 26 27 28 29 30 31 32 33 34 35 36 37 38
000
FTUS44 KTSA 202100 AAC
TAFMLC
TAF AMD
KMLC 202159Z 2022/2118 22004KT 6SM BR OVC020
     FM210600 17003KT 5SM BR OVC015
     FM210900 17004KT 3SM BR OVC007=

USA.gov is the U.S. government's official web portal to all federal, state and local government web resources and services.